createdAt,value
2017-07-08T00:00:03.794Z,937.45
2017-07-08T00:00:16.655Z,937.48
2017-07-08T00:00:30.153Z,937.43
2017-07-08T00:00:43.022Z,937.48
2017-07-08T00:00:55.948Z,937.43
2017-07-08T00:01:08.382Z,937.44
2017-07-08T00:01:21.369Z,937.45
2017-07-08T00:01:34.312Z,937.44
2017-07-08T00:01:47.793Z,937.47
2017-07-08T00:02:00.200Z,937.41
2017-07-08T00:02:13.092Z,937.39
2017-07-08T00:02:26.543Z,937.43
2017-07-08T00:02:38.960Z,937.39
2017-07-08T00:02:52.378Z,937.41
2017-07-08T00:03:05.318Z,937.43
2017-07-08T00:03:18.761Z,937.41
2017-07-08T00:03:32.282Z,937.42
2017-07-08T00:03:45.236Z,937.43
2017-07-08T00:03:58.760Z,937.43
2017-07-08T00:04:11.709Z,937.43
2017-07-08T00:04:25.139Z,937.42
2017-07-08T00:04:38.655Z,937.41
2017-07-08T00:04:52.065Z,937.41
2017-07-08T00:05:05.513Z,937.44
2017-07-08T00:05:19.022Z,937.39
2017-07-08T00:05:31.939Z,937.37
2017-07-08T00:05:44.991Z,937.42
2017-07-08T00:05:58.479Z,937.46
2017-07-08T00:06:11.966Z,937.42
2017-07-08T00:06:25.459Z,937.41
2017-07-08T00:06:38.970Z,937.41
2017-07-08T00:06:52.506Z,937.44
2017-07-08T00:07:04.929Z,937.43
2017-07-08T00:07:18.429Z,937.44
2017-07-08T00:07:30.819Z,937.41
2017-07-08T00:07:44.313Z,937.37
2017-07-08T00:07:57.877Z,937.43
2017-07-08T00:08:10.843Z,937.43
2017-07-08T00:08:23.995Z,937.45
2017-07-08T00:08:37.428Z,937.42
2017-07-08T00:08:50.854Z,937.42
2017-07-08T00:09:03.755Z,937.42
2017-07-08T00:09:16.894Z,937.41
2017-07-08T00:09:30.366Z,937.42
2017-07-08T00:09:43.333Z,937.42
2017-07-08T00:09:56.829Z,937.44
2017-07-08T00:10:09.741Z,937.41
2017-07-08T00:10:22.705Z,937.43
2017-07-08T00:10:36.214Z,937.45
2017-07-08T00:10:49.677Z,937.42
2017-07-08T00:11:03.129Z,937.42
2017-07-08T00:11:16.605Z,937.43
2017-07-08T00:11:30.087Z,937.43
2017-07-08T00:11:42.940Z,937.41
2017-07-08T00:11:56.472Z,937.41
2017-07-08T00:12:08.373Z,937.44
2017-07-08T00:12:21.257Z,937.44
2017-07-08T00:12:34.755Z,937.47
2017-07-08T00:12:47.656Z,937.49
2017-07-08T00:12:59.491Z,937.46
2017-07-08T00:13:11.321Z,937.48
2017-07-08T00:13:24.843Z,937.42
2017-07-08T00:13:37.736Z,937.49
2017-07-08T00:13:51.146Z,937.46
2017-07-08T00:14:04.073Z,937.47
2017-07-08T00:14:17.582Z,937.49
2017-07-08T00:14:30.984Z,937.47
2017-07-08T00:14:44.424Z,937.48
2017-07-08T00:14:57.327Z,937.46
2017-07-08T00:15:09.695Z,937.52
2017-07-08T00:15:22.633Z,937.5
2017-07-08T00:15:36.141Z,937.5
2017-07-08T00:15:48.568Z,937.52
2017-07-08T00:16:01.994Z,937.51
2017-07-08T00:16:15.427Z,937.5
2017-07-08T00:16:28.884Z,937.5
2017-07-08T00:16:41.820Z,937.53
2017-07-08T00:16:54.736Z,937.54
2017-07-08T00:17:07.676Z,937.53
2017-07-08T00:17:20.669Z,937.5
2017-07-08T00:17:34.102Z,937.54
2017-07-08T00:17:47.549Z,937.54
2017-07-08T00:18:00.993Z,937.52
2017-07-08T00:18:14.408Z,937.51
2017-07-08T00:18:26.873Z,937.53
2017-07-08T00:18:39.852Z,937.53
2017-07-08T00:18:53.254Z,937.52
2017-07-08T00:19:06.789Z,937.57
2017-07-08T00:19:19.913Z,937.52
2017-07-08T00:19:34.196Z,937.54
2017-07-08T00:19:47.407Z,937.55
2017-07-08T00:20:01.085Z,937.53
2017-07-08T00:20:13.971Z,937.57
2017-07-08T00:20:26.839Z,937.56
2017-07-08T00:20:40.359Z,937.55
2017-07-08T00:20:52.781Z,937.56
2017-07-08T00:21:07.094Z,937.56
2017-07-08T00:21:20.515Z,937.57
2017-07-08T00:21:34.007Z,937.6
2017-07-08T00:21:47.525Z,937.59
2017-07-08T00:21:59.916Z,937.6
2017-07-08T00:22:13.651Z,937.59
2017-07-08T00:22:25.744Z,937.58
2017-07-08T00:22:38.110Z,937.6
2017-07-08T00:22:50.485Z,937.62
2017-07-08T00:23:03.442Z,937.59
2017-07-08T00:23:17.712Z,937.58
2017-07-08T00:23:30.130Z,937.63
2017-07-08T00:23:43.047Z,937.61
2017-07-08T00:23:55.932Z,937.59
2017-07-08T00:24:08.886Z,937.6
2017-07-08T00:24:22.512Z,937.61
2017-07-08T00:24:34.892Z,937.67
2017-07-08T00:24:48.339Z,937.63
2017-07-08T00:25:01.814Z,937.6
2017-07-08T00:25:15.294Z,937.62
2017-07-08T00:25:28.202Z,937.71
2017-07-08T00:25:41.674Z,937.67
2017-07-08T00:25:54.568Z,937.66
2017-07-08T00:26:06.384Z,937.67
2017-07-08T00:26:19.887Z,937.66
2017-07-08T00:26:32.827Z,937.65
2017-07-08T00:26:46.315Z,937.63
2017-07-08T00:26:59.240Z,937.61
2017-07-08T00:27:11.622Z,937.59
2017-07-08T00:27:25.085Z,937.63
2017-07-08T00:27:38.627Z,937.61
2017-07-08T00:27:51.548Z,937.57
2017-07-08T00:28:05.064Z,937.6
2017-07-08T00:28:18.513Z,937.59
2017-07-08T00:28:31.943Z,937.61
2017-07-08T00:28:44.849Z,937.63
2017-07-08T00:28:57.856Z,937.62
2017-07-08T00:29:10.258Z,937.61
2017-07-08T00:29:23.902Z,937.59
2017-07-08T00:29:37.349Z,937.62
2017-07-08T00:29:50.787Z,937.6
2017-07-08T00:30:03.187Z,937.64
2017-07-08T00:30:15.600Z,937.58
2017-07-08T00:30:29.008Z,937.57
2017-07-08T00:30:41.994Z,937.58
2017-07-08T00:30:55.482Z,937.56
2017-07-08T00:31:08.354Z,937.58
2017-07-08T00:31:21.843Z,937.58
2017-07-08T00:31:35.328Z,937.61
2017-07-08T00:31:48.843Z,937.61
2017-07-08T00:32:01.814Z,937.59
2017-07-08T00:32:14.178Z,937.59
2017-07-08T00:32:27.582Z,937.63
2017-07-08T00:32:41.109Z,937.59
2017-07-08T00:32:54.611Z,937.59
2017-07-08T00:33:07.535Z,937.63
2017-07-08T00:33:20.972Z,937.6
2017-07-08T00:33:33.953Z,937.61
2017-07-08T00:33:47.409Z,937.61
2017-07-08T00:34:00.286Z,937.65
2017-07-08T00:34:13.201Z,937.58
2017-07-08T00:34:26.694Z,937.64
2017-07-08T00:34:40.183Z,937.66
2017-07-08T00:34:53.076Z,937.64
2017-07-08T00:35:06.560Z,937.65
2017-07-08T00:35:19.464Z,937.61
2017-07-08T00:35:33.153Z,937.63
2017-07-08T00:35:46.064Z,937.63
2017-07-08T00:35:59.500Z,937.64
2017-07-08T00:36:12.920Z,937.63
2017-07-08T00:36:25.821Z,937.62
2017-07-08T00:36:39.242Z,937.65
2017-07-08T00:36:51.637Z,937.61
2017-07-08T00:37:05.081Z,937.67
2017-07-08T00:37:18.598Z,937.65
2017-07-08T00:37:32.058Z,937.66
2017-07-08T00:37:45.012Z,937.66
2017-07-08T00:37:58.420Z,937.63
2017-07-08T00:38:11.886Z,937.65
2017-07-08T00:38:25.280Z,937.63
2017-07-08T00:38:38.791Z,937.65
2017-07-08T00:38:52.302Z,937.69
2017-07-08T00:39:05.741Z,937.67
2017-07-08T00:39:19.149Z,937.66
2017-07-08T00:39:32.039Z,937.64
2017-07-08T00:39:45.543Z,937.67
2017-07-08T00:39:57.896Z,937.67
2017-07-08T00:40:11.349Z,937.68
2017-07-08T00:40:24.338Z,937.69
2017-07-08T00:40:37.269Z,937.69
2017-07-08T00:40:50.183Z,937.66
2017-07-08T00:41:03.728Z,937.65
2017-07-08T00:41:16.650Z,937.69
2017-07-08T00:41:29.566Z,937.67
2017-07-08T00:41:42.555Z,937.66
2017-07-08T00:41:55.988Z,937.68
2017-07-08T00:42:09.447Z,937.66
2017-07-08T00:42:22.306Z,937.67
2017-07-08T00:42:35.770Z,937.69
2017-07-08T00:42:48.117Z,937.67
2017-07-08T00:43:00.509Z,937.72
2017-07-08T00:43:13.411Z,937.69
2017-07-08T00:43:26.917Z,937.69
2017-07-08T00:43:40.335Z,937.72
2017-07-08T00:43:53.810Z,937.71
2017-07-08T00:44:07.245Z,937.71
2017-07-08T00:44:20.773Z,937.7
2017-07-08T00:44:35.022Z,937.67
2017-07-08T00:44:47.950Z,937.69
2017-07-08T00:45:00.909Z,937.72
2017-07-08T00:45:13.814Z,937.68
2017-07-08T00:45:27.289Z,937.68
2017-07-08T00:45:39.203Z,937.67
2017-07-08T00:45:52.608Z,937.69
2017-07-08T00:46:06.187Z,937.65
2017-07-08T00:46:19.628Z,937.66
2017-07-08T00:46:33.067Z,937.65
2017-07-08T00:46:46.543Z,937.61
2017-07-08T00:47:00.059Z,937.7
2017-07-08T00:47:13.525Z,937.7
2017-07-08T00:47:26.424Z,937.69
2017-07-08T00:47:39.911Z,937.64
2017-07-08T00:47:52.794Z,937.67
2017-07-08T00:48:06.215Z,937.71
2017-07-08T00:48:19.689Z,937.64
2017-07-08T00:48:32.782Z,937.68
2017-07-08T00:48:46.256Z,937.69
2017-07-08T00:48:59.189Z,937.66
2017-07-08T00:49:12.170Z,937.68
2017-07-08T00:49:25.043Z,937.73
2017-07-08T00:49:37.987Z,937.68
2017-07-08T00:49:51.426Z,937.66
2017-07-08T00:50:04.852Z,937.74
2017-07-08T00:50:17.220Z,937.68
2017-07-08T00:50:30.638Z,937.67
2017-07-08T00:50:44.096Z,937.64
2017-07-08T00:50:56.447Z,937.68
2017-07-08T00:51:09.896Z,937.68
2017-07-08T00:51:22.819Z,937.68
2017-07-08T00:51:35.778Z,937.69
2017-07-08T00:51:48.158Z,937.66
2017-07-08T00:52:01.620Z,937.67
2017-07-08T00:52:13.446Z,937.65
2017-07-08T00:52:26.943Z,937.64
2017-07-08T00:52:40.411Z,937.66
2017-07-08T00:52:52.849Z,937.65
2017-07-08T00:53:06.245Z,937.65
2017-07-08T00:53:19.126Z,937.65
2017-07-08T00:53:32.611Z,937.67
2017-07-08T00:53:46.073Z,937.64
2017-07-08T00:53:58.961Z,937.73
2017-07-08T00:54:12.464Z,937.65
2017-07-08T00:54:25.666Z,937.69
2017-07-08T00:54:39.080Z,937.68
2017-07-08T00:54:52.019Z,937.69
2017-07-08T00:55:05.457Z,937.7
2017-07-08T00:55:17.309Z,937.68
2017-07-08T00:55:30.786Z,937.69
2017-07-08T00:55:43.676Z,937.7
2017-07-08T00:55:56.033Z,937.72
2017-07-08T00:56:08.940Z,937.68
2017-07-08T00:56:22.387Z,937.71
2017-07-08T00:56:35.293Z,937.74
2017-07-08T00:56:48.687Z,937.74
2017-07-08T00:57:02.134Z,937.72
2017-07-08T00:57:14.550Z,937.72
2017-07-08T00:57:27.514Z,937.75
2017-07-08T00:57:40.995Z,937.71
2017-07-08T00:57:54.459Z,937.73
2017-07-08T00:58:07.930Z,937.72
2017-07-08T00:58:20.853Z,937.7
2017-07-08T00:58:34.336Z,937.72
2017-07-08T00:58:47.255Z,937.68
2017-07-08T00:59:00.712Z,937.72
2017-07-08T00:59:14.194Z,937.73
2017-07-08T00:59:26.091Z,937.74
2017-07-08T00:59:38.507Z,937.74
2017-07-08T00:59:50.369Z,937.72
2017-07-08T01:00:03.844Z,937.77
2017-07-08T01:00:17.309Z,937.76
2017-07-08T01:00:30.267Z,937.74
2017-07-08T01:00:43.671Z,937.76
2017-07-08T01:00:57.130Z,937.76
2017-07-08T01:01:10.083Z,937.74
2017-07-08T01:01:23.520Z,937.79
2017-07-08T01:01:37.010Z,937.77
2017-07-08T01:01:49.951Z,937.75
2017-07-08T01:02:03.395Z,937.78
2017-07-08T01:02:16.311Z,937.75
2017-07-08T01:02:29.818Z,937.75
2017-07-08T01:02:42.754Z,937.77
2017-07-08T01:02:55.647Z,937.77
2017-07-08T01:03:08.626Z,937.74
2017-07-08T01:03:21.515Z,937.74
2017-07-08T01:03:34.992Z,937.75
2017-07-08T01:03:48.449Z,937.76
2017-07-08T01:04:00.819Z,937.72
2017-07-08T01:04:14.202Z,937.73
2017-07-08T01:04:27.641Z,937.74
2017-07-08T01:04:40.022Z,937.75
2017-07-08T01:04:53.475Z,937.75
2017-07-08T01:05:05.800Z,937.71
2017-07-08T01:05:18.682Z,937.77
2017-07-08T01:05:32.086Z,937.76
2017-07-08T01:05:45.094Z,937.74
2017-07-08T01:05:58.614Z,937.76
2017-07-08T01:06:11.563Z,937.74
2017-07-08T01:06:25.023Z,937.74
2017-07-08T01:06:37.890Z,937.74
2017-07-08T01:06:51.342Z,937.7
2017-07-08T01:07:04.241Z,937.77
2017-07-08T01:07:17.702Z,937.71
2017-07-08T01:07:30.589Z,937.73
2017-07-08T01:07:43.464Z,937.73
2017-07-08T01:07:56.877Z,937.73
2017-07-08T01:08:10.359Z,937.74
2017-07-08T01:08:23.293Z,937.74
2017-07-08T01:08:36.699Z,937.76
2017-07-08T01:08:50.107Z,937.71
2017-07-08T01:09:03.062Z,937.72
2017-07-08T01:09:16.505Z,937.7
2017-07-08T01:09:29.987Z,937.73
2017-07-08T01:09:42.357Z,937.75
2017-07-08T01:09:55.738Z,937.72
2017-07-08T01:10:08.649Z,937.73
2017-07-08T01:10:22.106Z,937.75
2017-07-08T01:10:35.012Z,937.73
2017-07-08T01:10:48.463Z,937.76
2017-07-08T01:11:01.888Z,937.74
2017-07-08T01:11:14.277Z,937.73
2017-07-08T01:11:27.713Z,937.73
2017-07-08T01:11:40.120Z,937.73
2017-07-08T01:11:53.586Z,937.77
2017-07-08T01:12:07.023Z,937.77
2017-07-08T01:12:20.472Z,937.73
2017-07-08T01:12:33.466Z,937.76
2017-07-08T01:12:46.452Z,937.76
2017-07-08T01:12:59.378Z,937.77
2017-07-08T01:13:11.240Z,937.77
2017-07-08T01:13:24.137Z,937.79
2017-07-08T01:13:37.039Z,937.77
2017-07-08T01:13:50.444Z,937.76
2017-07-08T01:14:02.804Z,937.79
2017-07-08T01:14:16.226Z,937.79
2017-07-08T01:14:30.574Z,937.79
2017-07-08T01:14:43.990Z,937.78
2017-07-08T01:14:57.481Z,937.77
2017-07-08T01:15:10.460Z,937.81
2017-07-08T01:15:23.933Z,937.79
2017-07-08T01:15:37.433Z,937.79
2017-07-08T01:15:50.306Z,937.78
2017-07-08T01:16:03.804Z,937.82
2017-07-08T01:16:17.251Z,937.83
2017-07-08T01:16:30.734Z,937.8
2017-07-08T01:16:43.621Z,937.78
2017-07-08T01:16:57.099Z,937.78
2017-07-08T01:17:10.038Z,937.82
2017-07-08T01:17:23.468Z,937.81
2017-07-08T01:17:36.916Z,937.81
2017-07-08T01:17:49.870Z,937.79
2017-07-08T01:18:03.361Z,937.83
2017-07-08T01:18:15.275Z,937.84
2017-07-08T01:18:28.174Z,937.79
2017-07-08T01:18:41.638Z,937.82
2017-07-08T01:18:55.146Z,937.84
2017-07-08T01:19:08.656Z,937.86
2017-07-08T01:19:21.564Z,937.85
2017-07-08T01:19:33.901Z,937.84
2017-07-08T01:19:47.374Z,937.81
2017-07-08T01:20:00.854Z,937.84
2017-07-08T01:20:14.309Z,937.83
2017-07-08T01:20:27.912Z,937.78
2017-07-08T01:20:41.343Z,937.8
2017-07-08T01:20:54.772Z,937.81
2017-07-08T01:21:08.259Z,937.83
2017-07-08T01:21:21.704Z,937.8
2017-07-08T01:21:34.098Z,937.77
2017-07-08T01:21:47.050Z,937.82
2017-07-08T01:22:00.543Z,937.81
2017-07-08T01:22:13.035Z,937.82
2017-07-08T01:22:25.492Z,937.81
2017-07-08T01:22:37.926Z,937.82
2017-07-08T01:22:49.769Z,937.82
2017-07-08T01:23:02.724Z,937.84
2017-07-08T01:23:15.661Z,937.83
2017-07-08T01:23:28.592Z,937.83
2017-07-08T01:23:41.568Z,937.81
2017-07-08T01:23:54.516Z,937.84
2017-07-08T01:24:07.425Z,937.85
2017-07-08T01:24:20.338Z,937.82
2017-07-08T01:24:33.960Z,937.83
2017-07-08T01:24:46.844Z,937.83
2017-07-08T01:24:59.780Z,937.83
2017-07-08T01:25:12.678Z,937.82
2017-07-08T01:25:25.156Z,937.8
2017-07-08T01:25:38.111Z,937.85
2017-07-08T01:25:51.561Z,937.83
2017-07-08T01:26:04.462Z,937.86
2017-07-08T01:26:16.921Z,937.85
2017-07-08T01:26:30.385Z,937.86
2017-07-08T01:26:43.334Z,937.84
2017-07-08T01:26:56.835Z,937.83
2017-07-08T01:27:09.739Z,937.82
2017-07-08T01:27:23.185Z,937.79
2017-07-08T01:27:36.647Z,937.83
2017-07-08T01:27:49.000Z,937.83
2017-07-08T01:28:02.413Z,937.85
2017-07-08T01:28:15.926Z,937.86
2017-07-08T01:28:29.406Z,937.85
2017-07-08T01:28:42.917Z,937.82
2017-07-08T01:28:56.338Z,937.81
2017-07-08T01:29:09.246Z,937.87
2017-07-08T01:29:22.162Z,937.85
2017-07-08T01:29:36.333Z,937.84
2017-07-08T01:29:49.780Z,937.82
2017-07-08T01:30:03.319Z,937.88
2017-07-08T01:30:16.759Z,937.9
2017-07-08T01:30:30.288Z,937.86
2017-07-08T01:30:42.177Z,937.86
2017-07-08T01:30:55.633Z,937.9
2017-07-08T01:31:08.503Z,937.9
2017-07-08T01:31:21.976Z,937.86
2017-07-08T01:31:34.894Z,937.89
2017-07-08T01:31:47.877Z,937.87
2017-07-08T01:32:01.311Z,937.86
2017-07-08T01:32:14.219Z,937.88
2017-07-08T01:32:27.140Z,937.87
2017-07-08T01:32:40.069Z,937.89
2017-07-08T01:32:53.520Z,937.85
2017-07-08T01:33:07.027Z,937.89
2017-07-08T01:33:20.416Z,937.85
2017-07-08T01:33:32.762Z,937.86
2017-07-08T01:33:45.094Z,937.87
2017-07-08T01:33:58.523Z,937.88
2017-07-08T01:34:11.448Z,937.89
2017-07-08T01:34:24.338Z,937.84
2017-07-08T01:34:36.733Z,937.89
2017-07-08T01:34:49.641Z,937.92
2017-07-08T01:35:02.584Z,937.88
2017-07-08T01:35:15.520Z,937.9
2017-07-08T01:35:28.462Z,937.91
2017-07-08T01:35:41.931Z,937.88
2017-07-08T01:35:54.810Z,937.88
2017-07-08T01:36:06.667Z,937.86
2017-07-08T01:36:20.158Z,937.92
2017-07-08T01:36:33.569Z,937.88
2017-07-08T01:36:46.436Z,937.86
2017-07-08T01:36:59.334Z,937.89
2017-07-08T01:37:12.804Z,937.84
2017-07-08T01:37:25.698Z,937.84
2017-07-08T01:37:39.130Z,937.86
2017-07-08T01:37:52.585Z,937.87
2017-07-08T01:38:06.091Z,937.89
2017-07-08T01:38:19.033Z,937.87
2017-07-08T01:38:31.426Z,937.88
2017-07-08T01:38:44.846Z,937.89
2017-07-08T01:38:58.248Z,937.87
2017-07-08T01:39:11.727Z,937.85
2017-07-08T01:39:25.195Z,937.91
2017-07-08T01:39:37.016Z,937.89
2017-07-08T01:39:49.959Z,937.94
2017-07-08T01:40:02.321Z,937.91
2017-07-08T01:40:15.262Z,937.9
2017-07-08T01:40:28.650Z,937.87
2017-07-08T01:40:41.580Z,937.92
2017-07-08T01:40:54.502Z,937.92
2017-07-08T01:41:07.970Z,937.92
2017-07-08T01:41:20.935Z,937.91
2017-07-08T01:41:33.816Z,937.92
2017-07-08T01:41:46.682Z,937.92
2017-07-08T01:42:00.180Z,937.93
2017-07-08T01:42:12.499Z,937.92
2017-07-08T01:42:25.904Z,937.9
2017-07-08T01:42:38.775Z,937.89
2017-07-08T01:42:52.201Z,937.92
2017-07-08T01:43:05.623Z,937.91
2017-07-08T01:43:18.577Z,937.94
2017-07-08T01:43:32.020Z,937.93
2017-07-08T01:43:44.417Z,937.93
2017-07-08T01:43:57.899Z,937.93
2017-07-08T01:44:09.745Z,937.94
2017-07-08T01:44:23.157Z,937.94
2017-07-08T01:44:36.629Z,937.93
2017-07-08T01:44:50.971Z,937.94
2017-07-08T01:45:03.943Z,937.96
2017-07-08T01:45:17.470Z,937.9
2017-07-08T01:45:30.933Z,937.96
2017-07-08T01:45:43.875Z,937.95
2017-07-08T01:45:56.780Z,937.93
2017-07-08T01:46:10.203Z,937.93
2017-07-08T01:46:23.636Z,937.95
2017-07-08T01:46:36.563Z,937.95
2017-07-08T01:46:50.067Z,937.96
2017-07-08T01:47:03.529Z,937.99
2017-07-08T01:47:15.937Z,937.95
2017-07-08T01:47:29.351Z,937.95
2017-07-08T01:47:42.333Z,937.96
2017-07-08T01:47:55.228Z,937.98
2017-07-08T01:48:07.581Z,937.98
2017-07-08T01:48:20.522Z,937.99
2017-07-08T01:48:33.445Z,937.99
2017-07-08T01:48:46.420Z,938.01
2017-07-08T01:48:59.311Z,938.01
2017-07-08T01:49:12.224Z,938.01
2017-07-08T01:49:25.636Z,938.03
2017-07-08T01:49:39.102Z,938.01
2017-07-08T01:49:52.529Z,938.01
2017-07-08T01:50:06.003Z,938.02
2017-07-08T01:50:19.499Z,938.02
2017-07-08T01:50:32.988Z,938.01
2017-07-08T01:50:46.477Z,938.04
2017-07-08T01:50:59.466Z,938
2017-07-08T01:51:12.949Z,938.02
2017-07-08T01:51:26.441Z,937.97
2017-07-08T01:51:39.841Z,937.97
2017-07-08T01:51:51.650Z,938
2017-07-08T01:52:04.551Z,938.01
2017-07-08T01:52:17.989Z,938.01
2017-07-08T01:52:30.952Z,937.99
2017-07-08T01:52:43.809Z,937.99
2017-07-08T01:52:56.759Z,938.02
2017-07-08T01:53:10.262Z,938.01
2017-07-08T01:53:23.778Z,938.03
2017-07-08T01:53:36.740Z,938.05
2017-07-08T01:53:49.638Z,938.02
2017-07-08T01:54:03.093Z,938.01
2017-07-08T01:54:14.963Z,938.04
2017-07-08T01:54:28.405Z,938.02
2017-07-08T01:54:41.322Z,938.03
2017-07-08T01:54:54.251Z,938.05
2017-07-08T01:55:07.162Z,938.03
2017-07-08T01:55:20.025Z,938.03
2017-07-08T01:55:33.474Z,938.03
2017-07-08T01:55:46.462Z,938.01
2017-07-08T01:55:59.342Z,938
2017-07-08T01:56:12.246Z,938.03
2017-07-08T01:56:25.213Z,938.05
2017-07-08T01:56:38.087Z,938.04
2017-07-08T01:56:50.993Z,938.04
2017-07-08T01:57:03.887Z,938.05
2017-07-08T01:57:17.368Z,938.06
2017-07-08T01:57:30.799Z,938.03
2017-07-08T01:57:43.717Z,938.04
2017-07-08T01:57:57.151Z,938.06
2017-07-08T01:58:09.032Z,937.99
2017-07-08T01:58:22.514Z,938.03
2017-07-08T01:58:35.489Z,938.01
2017-07-08T01:58:48.457Z,938.03
2017-07-08T01:59:01.903Z,938.03
2017-07-08T01:59:14.798Z,938.07
2017-07-08T01:59:28.276Z,938.06
2017-07-08T01:59:41.761Z,938.04
2017-07-08T01:59:55.088Z,938.06
2017-07-08T02:00:08.035Z,938.09
2017-07-08T02:00:20.952Z,938.07
2017-07-08T02:00:33.886Z,938.08
2017-07-08T02:00:47.378Z,938.07
2017-07-08T02:01:00.330Z,938.06
2017-07-08T02:01:13.195Z,938.06
2017-07-08T02:01:26.680Z,938.06
2017-07-08T02:01:40.168Z,938.06
2017-07-08T02:01:53.064Z,938.04
2017-07-08T02:02:05.426Z,938.05
2017-07-08T02:02:18.836Z,938.06
2017-07-08T02:02:32.266Z,938.09
2017-07-08T02:02:45.171Z,938.1
2017-07-08T02:02:58.122Z,938.08
2017-07-08T02:03:11.591Z,938.09
2017-07-08T02:03:25.065Z,938.09
2017-07-08T02:03:38.638Z,938.06
2017-07-08T02:03:52.087Z,938.06
2017-07-08T02:04:05.486Z,938.1
2017-07-08T02:04:18.946Z,938.12
2017-07-08T02:04:32.371Z,938.11
2017-07-08T02:04:45.369Z,938.09
2017-07-08T02:04:58.348Z,938.12
2017-07-08T02:05:11.297Z,938.07
2017-07-08T02:05:24.787Z,938.09
2017-07-08T02:05:38.213Z,938.09
2017-07-08T02:05:51.618Z,938.06
2017-07-08T02:06:05.030Z,938.05
2017-07-08T02:06:17.910Z,938.05
2017-07-08T02:06:30.830Z,938.05
2017-07-08T02:06:44.288Z,938.1
2017-07-08T02:06:57.744Z,938.06
2017-07-08T02:07:10.702Z,938.07
2017-07-08T02:07:24.135Z,938.05
2017-07-08T02:07:36.768Z,938.06
2017-07-08T02:07:48.608Z,938.07
2017-07-08T02:08:01.034Z,938.08
2017-07-08T02:08:12.364Z,938.08
2017-07-08T02:08:24.242Z,938.08
2017-07-08T02:08:35.585Z,938.06
2017-07-08T02:08:46.927Z,938.06
2017-07-08T02:08:59.325Z,938.07
2017-07-08T02:09:12.185Z,938.08
2017-07-08T02:09:23.535Z,938.08
2017-07-08T02:09:34.847Z,938.02
2017-07-08T02:09:46.743Z,938.07
2017-07-08T02:09:59.207Z,938.06
2017-07-08T02:10:12.102Z,938.08
2017-07-08T02:10:25.537Z,938.05
2017-07-08T02:10:38.429Z,938.07
2017-07-08T02:10:51.405Z,938.05
2017-07-08T02:11:04.331Z,938.07
2017-07-08T02:11:17.213Z,938.08
2017-07-08T02:11:30.696Z,938.07
2017-07-08T02:11:44.154Z,938.07
2017-07-08T02:11:56.580Z,938.05
2017-07-08T02:12:09.529Z,938.05
2017-07-08T02:12:22.428Z,938.03
2017-07-08T02:12:35.858Z,938.05
2017-07-08T02:12:48.875Z,938.04
2017-07-08T02:13:01.888Z,938
2017-07-08T02:13:15.370Z,938.02
2017-07-08T02:13:28.806Z,938
2017-07-08T02:13:41.665Z,937.99
2017-07-08T02:13:54.580Z,938.05
2017-07-08T02:14:08.019Z,938.03
2017-07-08T02:14:21.461Z,938
2017-07-08T02:14:34.953Z,938.03
2017-07-08T02:14:48.345Z,938.03
2017-07-08T02:15:02.059Z,938.03
2017-07-08T02:15:14.977Z,938.02
2017-07-08T02:15:28.491Z,938.03
2017-07-08T02:15:41.378Z,937.99
2017-07-08T02:15:54.865Z,938.02
2017-07-08T02:16:08.286Z,937.95
2017-07-08T02:16:21.221Z,937.94
2017-07-08T02:16:34.657Z,937.97
2017-07-08T02:16:47.572Z,937.94
2017-07-08T02:17:00.999Z,937.95
2017-07-08T02:17:13.395Z,937.97
2017-07-08T02:17:26.796Z,937.94
2017-07-08T02:17:40.280Z,937.98
2017-07-08T02:17:53.226Z,937.97
2017-07-08T02:18:06.650Z,937.94
2017-07-08T02:18:19.552Z,937.95
2017-07-08T02:18:32.976Z,937.96
2017-07-08T02:18:46.468Z,937.97
2017-07-08T02:18:59.444Z,937.95
2017-07-08T02:19:11.806Z,937.96
2017-07-08T02:19:24.682Z,937.96
2017-07-08T02:19:38.144Z,937.94
2017-07-08T02:19:51.614Z,937.95
2017-07-08T02:20:05.045Z,937.93
2017-07-08T02:20:18.555Z,937.95
2017-07-08T02:20:32.038Z,937.95
2017-07-08T02:20:45.503Z,937.96
2017-07-08T02:20:59.002Z,937.96
2017-07-08T02:21:11.892Z,937.97
2017-07-08T02:21:24.836Z,937.96
2017-07-08T02:21:37.777Z,937.95
2017-07-08T02:21:51.222Z,937.94
2017-07-08T02:22:03.684Z,937.95
2017-07-08T02:22:16.058Z,937.96
2017-07-08T02:22:27.910Z,937.93
2017-07-08T02:22:39.771Z,937.92
2017-07-08T02:22:52.645Z,937.91
2017-07-08T02:23:04.489Z,937.93
2017-07-08T02:23:15.795Z,937.95
2017-07-08T02:23:28.757Z,937.95
2017-07-08T02:23:42.208Z,937.95
2017-07-08T02:23:55.159Z,937.94
2017-07-08T02:24:08.612Z,937.92
2017-07-08T02:24:21.504Z,937.94
2017-07-08T02:24:34.974Z,937.92
2017-07-08T02:24:48.402Z,937.94
2017-07-08T02:25:01.519Z,937.94
2017-07-08T02:25:14.451Z,937.95
2017-07-08T02:25:27.841Z,937.91
2017-07-08T02:25:40.781Z,937.92
2017-07-08T02:25:54.192Z,937.94
2017-07-08T02:26:07.118Z,937.92
2017-07-08T02:26:20.549Z,937.94
2017-07-08T02:26:33.957Z,937.95
2017-07-08T02:26:46.825Z,937.93
2017-07-08T02:27:00.235Z,937.94
2017-07-08T02:27:12.591Z,937.97
2017-07-08T02:27:24.992Z,937.99
2017-07-08T02:27:38.430Z,937.97
2017-07-08T02:27:51.895Z,937.93
2017-07-08T02:28:04.803Z,937.93
2017-07-08T02:28:17.725Z,937.96
2017-07-08T02:28:31.188Z,937.97
2017-07-08T02:28:43.616Z,937.94
2017-07-08T02:28:57.130Z,937.92
2017-07-08T02:29:10.017Z,937.96
2017-07-08T02:29:22.973Z,937.95
2017-07-08T02:29:36.401Z,937.95
2017-07-08T02:29:49.883Z,937.92
2017-07-08T02:30:03.057Z,937.97
2017-07-08T02:30:15.431Z,937.97
2017-07-08T02:30:27.819Z,937.96
2017-07-08T02:30:40.750Z,937.91
2017-07-08T02:30:53.137Z,937.92
2017-07-08T02:31:06.050Z,937.93
2017-07-08T02:31:18.438Z,937.95
2017-07-08T02:31:31.314Z,937.92
2017-07-08T02:31:44.266Z,937.94
2017-07-08T02:31:57.693Z,937.93
2017-07-08T02:32:10.608Z,937.89
2017-07-08T02:32:23.559Z,937.94
2017-07-08T02:32:36.491Z,937.95
2017-07-08T02:32:48.852Z,937.96
2017-07-08T02:33:02.304Z,937.91
2017-07-08T02:33:15.780Z,937.91
2017-07-08T02:33:29.189Z,937.94
2017-07-08T02:33:42.132Z,937.97
2017-07-08T02:33:54.564Z,937.95
2017-07-08T02:34:06.946Z,937.93
2017-07-08T02:34:20.399Z,937.92
2017-07-08T02:34:33.388Z,937.91
2017-07-08T02:34:45.789Z,937.91
2017-07-08T02:34:58.687Z,937.9
2017-07-08T02:35:12.084Z,937.88
2017-07-08T02:35:25.508Z,937.91
2017-07-08T02:35:37.913Z,937.94
2017-07-08T02:35:50.873Z,937.9
2017-07-08T02:36:04.249Z,937.94
2017-07-08T02:36:17.649Z,937.89
2017-07-08T02:36:30.566Z,937.93
2017-07-08T02:36:44.012Z,937.91
2017-07-08T02:36:56.935Z,937.89
2017-07-08T02:37:10.402Z,937.89
2017-07-08T02:37:23.344Z,937.87
2017-07-08T02:37:36.720Z,937.89
2017-07-08T02:37:50.157Z,937.89
2017-07-08T02:38:02.556Z,937.85
2017-07-08T02:38:15.985Z,937.81
2017-07-08T02:38:29.464Z,937.82
2017-07-08T02:38:42.377Z,937.9
2017-07-08T02:38:56.063Z,937.89
2017-07-08T02:39:09.456Z,937.85
2017-07-08T02:39:22.839Z,937.84
2017-07-08T02:39:35.751Z,937.83
2017-07-08T02:39:48.134Z,937.87
2017-07-08T02:40:01.072Z,937.83
2017-07-08T02:40:13.406Z,937.8
2017-07-08T02:40:26.314Z,937.84
2017-07-08T02:40:39.288Z,937.81
2017-07-08T02:40:52.226Z,937.82
2017-07-08T02:41:05.691Z,937.82
2017-07-08T02:41:19.186Z,937.78
2017-07-08T02:41:32.630Z,937.84
2017-07-08T02:41:46.165Z,937.82
2017-07-08T02:41:59.646Z,937.83
2017-07-08T02:42:13.085Z,937.81
2017-07-08T02:42:26.523Z,937.79
2017-07-08T02:42:39.976Z,937.81
2017-07-08T02:42:53.452Z,937.82
2017-07-08T02:43:06.371Z,937.79
2017-07-08T02:43:18.780Z,937.81
2017-07-08T02:43:32.199Z,937.81
2017-07-08T02:43:45.705Z,937.83